Roosevelt, Washington
Current Conditions -  °F | °C
As of 1:53 PM on Wednesday 28 Jan 2015 (Local Time) from KHRI Reporting Station
Overcast Overcast  
Wind Chill:   Ceiling: 600
Heat Index:   Visibility: 10mi
Dew Point:   Wind: 14mph
Humidity: 86%   Direction: 50°NE
Pressure: 30.4"   Gusts: NA
Location:  45.74°N, 120.21°W
Report Text: KHRI 282153Z AUTO 05012KT 10SM OVC006 04/02 A3040 RMK AO2 CIG 005V009 SLP297 T00440022
Loading
Personal Weather Stations






























Interactive Weather Map New forecast layout! Learn more

10-Day Weather Forecast

Advertisements
Track Severe Weather on mobile